Current Weather

Aghajari

Aghajari, Iran (OIAG)

Report from: Saturday, July 13, 2024 12:00 AM UTC
Current time: Saturday, July 13, 2024 1:22 AM UTC

Nearby weather – Weather history – Daily summaries
Weather forecast

Temperature32.0°C (89.6°F)
Heat index30.6°C (87.0°F)
Dew point11.0°C (51.8°F)
Winds 6 kts (3.1 m/s, 6.9 mph) Southeast (130°)
Clouds Sky clear
Altimeter29.26 in.Hg (991 mB)
Relative humidity28 %
Density altitude2,877 ft. (877 m)
Remarks Ceiling and visibility OK
Flight conditions Visual Meteorological Conditions
Raw dataOIAG 130000Z 13006KT CAVOK 32/11 Q0991
An unhandled exception has occurred. See browser dev tools for details. Reload 🗙